PWSweather.com
Personal Weather Stations
Station Observations
IHTIMAN1
Neighbourhood 1, IhtimanBG 2050

Neighbourhood 1IhtimanBG 2050

Lat: 42.436852, Lon: 23.817921

Elevation: 2066

Station Type: Oregon Scientific WMR968

http://ihtiman-meteo.com

High Low Average
Temperature 83.2°F28.4°C 59.7°F15.4°C 67.2°F19.6°C
Dew Point 67.5°F19.7°C 56.5°F13.6°C 61.8°F16.6°C
Winds 8.1 mph 13.0 kmh Calm Calm 1.0 mph SW1.6 kmh SW
Wind Gusts 12.7 mph20.4 kmh -- 2.0 mph3.2 kmh
Humidity 98% 46% 85%
Pressure 30.06 in1017.9 mb 29.94 in1013.9 mb -
Precipitation 0.90 in22.9 mm - -
Hour Temp Dew Point Humidity Winds Wind Gusts Pressure Precip Precip Rate Daily Precip Total
12:00 AM 61.8°F16.6°C 61.0°F16.1°C 97% Calm Calm 3.5 mph5.6 kmh 29.97 in1014.9 mb - 0.00 in0.0 mm 0.00 in0.0 mm
12:10 AM 61.7°F16.5°C 60.8°F16.0°C 97% Calm Calm -- 29.97 in1014.9 mb - 0.00 in0.0 mm 0.00 in0.0 mm
12:20 AM 61.3°F16.3°C 60.5°F15.8°C 97% Calm Calm -- 29.94 in1013.9 mb - 0.00 in0.0 mm 0.00 in0.0 mm
12:30 AM 61.2°F16.2°C 60.3°F15.7°C 97% Calm Calm -- 29.97 in1014.9 mb - 0.00 in0.0 mm 0.00 in0.0 mm
12:40 AM 61.2°F16.2°C 60.3°F15.7°C 97% Calm Calm -- 29.97 in1014.9 mb - 0.00 in0.0 mm 0.00 in0.0 mm
12:50 AM 61.3°F16.3°C 60.5°F15.8°C 97% Calm Calm 3.5 mph5.6 kmh 29.97 in1014.9 mb - 0.00 in0.0 mm 0.00 in0.0 mm
01:00 AM 61.3°F16.3°C 60.5°F15.8°C 97% Calm Calm -- 29.94 in1013.9 mb - 0.00 in0.0 mm 0.00 in0.0 mm
01:10 AM 61.3°F16.3°C 60.8°F16.0°C 98% Calm Calm -- 29.94 in1013.9 mb - 0.00 in0.0 mm 0.00 in0.0 mm
01:20 AM 61.3°F16.3°C 60.8°F16.0°C 98% Calm Calm -- 29.94 in1013.9 mb - 0.00 in0.0 mm 0.00 in0.0 mm
01:30 AM 61.5°F16.4°C 61.0°F16.1°C 98% Calm Calm -- 29.94 in1013.9 mb - 0.00 in0.0 mm 0.00 in0.0 mm
01:40 AM 61.5°F16.4°C 61.0°F16.1°C 98% Calm Calm -- 29.94 in1013.9 mb - 0.00 in0.0 mm 0.00 in0.0 mm
01:50 AM 61.5°F16.4°C 61.0°F16.1°C 98% Calm Calm -- 29.94 in1013.9 mb - 0.00 in0.0 mm 0.00 in0.0 mm
02:00 AM 61.5°F16.4°C 61.0°F16.1°C 98% Calm Calm -- 29.94 in1013.9 mb - 0.00 in0.0 mm 0.00 in0.0 mm
02:10 AM 61.5°F16.4°C 61.0°F16.1°C 98% Calm Calm -- 29.94 in1013.9 mb - 0.00 in0.0 mm 0.00 in0.0 mm
02:20 AM 61.7°F16.5°C 61.1°F16.2°C 98% Calm Calm -- 29.94 in1013.9 mb - 0.00 in0.0 mm 0.00 in0.0 mm
02:30 AM 61.6°F16.4°C 61.0°F16.1°C 98% Calm Calm -- 29.94 in1013.9 mb - 0.00 in0.0 mm 0.00 in0.0 mm
02:40 AM 61.5°F16.4°C 61.0°F16.1°C 98% Calm Calm -- 29.94 in1013.9 mb - 0.00 in0.0 mm 0.00 in0.0 mm
02:50 AM 61.3°F16.3°C 60.7°F15.9°C 98% Calm Calm -- 29.94 in1013.9 mb - 0.00 in0.0 mm 0.00 in0.0 mm
03:00 AM 61.2°F16.2°C 60.6°F15.9°C 98% Calm Calm -- 29.94 in1013.9 mb - 0.00 in0.0 mm 0.00 in0.0 mm
03:10 AM 61.0°F16.1°C 60.4°F15.8°C 98% Calm Calm -- 29.94 in1013.9 mb - 0.00 in0.0 mm 0.00 in0.0 mm
03:20 AM 61.0°F16.1°C 60.4°F15.8°C 98% Calm Calm -- 29.94 in1013.9 mb - 0.00 in0.0 mm 0.00 in0.0 mm
03:30 AM 61.0°F16.1°C 60.4°F15.8°C 98% Calm Calm -- 29.94 in1013.9 mb - 0.00 in0.0 mm 0.00 in0.0 mm
03:40 AM 60.8°F16.0°C 60.2°F15.7°C 98% Calm Calm -- 29.94 in1013.9 mb - 0.00 in0.0 mm 0.00 in0.0 mm
03:50 AM 60.8°F16.0°C 60.2°F15.7°C 98% Calm Calm -- 29.94 in1013.9 mb - 0.00 in0.0 mm 0.00 in0.0 mm
04:00 AM 60.8°F16.0°C 60.2°F15.7°C 98% Calm Calm -- 29.94 in1013.9 mb - 0.00 in0.0 mm 0.00 in0.0 mm
04:10 AM 60.8°F16.0°C 60.2°F15.7°C 98% Calm Calm -- 29.94 in1013.9 mb - 0.00 in0.0 mm 0.00 in0.0 mm
04:20 AM 60.6°F15.9°C 60.1°F15.6°C 98% Calm Calm -- 29.94 in1013.9 mb - 0.00 in0.0 mm 0.00 in0.0 mm
04:30 AM 60.4°F15.8°C 59.9°F15.5°C 98% Calm Calm -- 29.94 in1013.9 mb - 0.00 in0.0 mm 0.00 in0.0 mm
04:40 AM 60.3°F15.7°C 59.7°F15.4°C 98% Calm Calm -- 29.94 in1013.9 mb - 0.00 in0.0 mm 0.00 in0.0 mm
04:50 AM 60.1°F15.6°C 59.5°F15.3°C 98% Calm Calm -- 29.94 in1013.9 mb - 0.00 in0.0 mm 0.00 in0.0 mm
05:00 AM 59.9°F15.5°C 59.3°F15.2°C 98% Calm Calm -- 29.94 in1013.9 mb - 0.00 in0.0 mm 0.00 in0.0 mm
05:10 AM 59.7°F15.4°C 59.2°F15.1°C 98% Calm Calm -- 29.94 in1013.9 mb - 0.00 in0.0 mm 0.00 in0.0 mm
05:20 AM 59.7°F15.4°C 59.2°F15.1°C 98% Calm Calm -- 29.94 in1013.9 mb - 0.00 in0.0 mm 0.00 in0.0 mm
05:30 AM 59.9°F15.5°C 59.3°F15.2°C 98% Calm Calm -- 29.94 in1013.9 mb - 0.00 in0.0 mm 0.00 in0.0 mm
05:40 AM 59.7°F15.4°C 59.2°F15.1°C 98% Calm Calm -- 29.94 in1013.9 mb - 0.00 in0.0 mm 0.00 in0.0 mm
05:50 AM 59.7°F15.4°C 59.2°F15.1°C 98% Calm Calm -- 29.94 in1013.9 mb - 0.00 in0.0 mm 0.00 in0.0 mm
06:00 AM 60.6°F15.9°C 60.0°F15.6°C 98% Calm Calm -- 29.94 in1013.9 mb - 0.00 in0.0 mm 0.00 in0.0 mm
06:10 AM 61.0°F16.1°C 60.4°F15.8°C 98% Calm Calm -- 29.94 in1013.9 mb - 0.00 in0.0 mm 0.00 in0.0 mm
06:20 AM 61.7°F16.5°C 61.1°F16.2°C 98% Calm Calm -- 29.94 in1013.9 mb - 0.00 in0.0 mm 0.00 in0.0 mm
06:30 AM 61.7°F16.5°C 61.1°F16.2°C 98% Calm Calm -- 29.94 in1013.9 mb - 0.00 in0.0 mm 0.00 in0.0 mm
06:40 AM 62.1°F16.7°C 61.5°F16.4°C 98% Calm Calm -- 29.94 in1013.9 mb - 0.00 in0.0 mm 0.00 in0.0 mm
06:50 AM 62.4°F16.9°C 61.8°F16.6°C 98% Calm Calm -- 29.94 in1013.9 mb - 0.00 in0.0 mm 0.00 in0.0 mm
07:00 AM 63.1°F17.3°C 62.6°F17.0°C 98% 2.3 mph W3.7 kmh W 3.5 mph5.6 kmh 29.94 in1013.9 mb - 0.00 in0.0 mm 0.00 in0.0 mm
07:10 AM 64.4°F18.0°C 63.5°F17.5°C 97% 2.3 mph NW3.7 kmh NW 5.8 mph9.3 kmh 29.94 in1013.9 mb - 0.00 in0.0 mm 0.00 in0.0 mm
07:20 AM 66.4°F19.1°C 64.3°F17.9°C 93% Calm Calm 2.3 mph3.7 kmh 29.94 in1013.9 mb - 0.00 in0.0 mm 0.00 in0.0 mm
07:30 AM 67.5°F19.7°C 63.9°F17.7°C 88% 1.2 mph NW1.9 kmh NW 5.8 mph9.3 kmh 29.94 in1013.9 mb - 0.00 in0.0 mm 0.00 in0.0 mm
07:40 AM 68.5°F20.3°C 62.8°F17.1°C 82% 3.5 mph WNW5.6 kmh WNW 4.6 mph7.4 kmh 29.94 in1013.9 mb - 0.00 in0.0 mm 0.00 in0.0 mm
07:50 AM 69.2°F20.7°C 62.8°F17.1°C 80% 3.5 mph WNW5.6 kmh WNW 5.8 mph9.3 kmh 29.97 in1014.9 mb - 0.00 in0.0 mm 0.00 in0.0 mm
08:00 AM 69.8°F21.0°C 63.0°F17.2°C 79% 4.6 mph W7.4 kmh W 5.8 mph9.3 kmh 29.97 in1014.9 mb - 0.00 in0.0 mm 0.00 in0.0 mm
08:10 AM 70.5°F21.4°C 63.0°F17.2°C 77% 3.5 mph NNW5.6 kmh NNW 5.8 mph9.3 kmh 29.97 in1014.9 mb - 0.00 in0.0 mm 0.00 in0.0 mm
08:20 AM 71.7°F22.1°C 63.4°F17.4°C 75% 3.5 mph N5.6 kmh N 5.8 mph9.3 kmh 29.97 in1014.9 mb - 0.00 in0.0 mm 0.00 in0.0 mm
08:30 AM 71.7°F22.1°C 61.4°F16.3°C 70% 4.6 mph NW7.4 kmh NW 8.1 mph13.0 kmh 29.97 in1014.9 mb - 0.00 in0.0 mm 0.00 in0.0 mm
08:40 AM 72.9°F22.7°C 62.1°F16.7°C 69% 4.6 mph NNW7.4 kmh NNW 5.8 mph9.3 kmh 29.97 in1014.9 mb - 0.00 in0.0 mm 0.00 in0.0 mm
08:50 AM 73.8°F23.2°C 62.6°F17.0°C 68% 3.5 mph NW5.6 kmh NW 5.8 mph9.3 kmh 29.97 in1014.9 mb - 0.00 in0.0 mm 0.00 in0.0 mm
09:00 AM 74.2°F23.4°C 62.1°F16.7°C 66% 2.3 mph NW3.7 kmh NW 3.5 mph5.6 kmh 29.97 in1014.9 mb - 0.00 in0.0 mm 0.00 in0.0 mm
09:10 AM 75.2°F24.0°C 62.6°F17.0°C 65% 3.5 mph WNW5.6 kmh WNW 5.8 mph9.3 kmh 29.97 in1014.9 mb - 0.00 in0.0 mm 0.00 in0.0 mm
09:20 AM 76.4°F24.7°C 62.9°F17.2°C 63% 3.5 mph W5.6 kmh W 5.8 mph9.3 kmh 29.97 in1014.9 mb - 0.00 in0.0 mm 0.00 in0.0 mm
09:30 AM 77.3°F25.2°C 63.3°F17.4°C 62% 3.5 mph W5.6 kmh W 10.4 mph16.7 kmh 29.97 in1014.9 mb - 0.00 in0.0 mm 0.00 in0.0 mm
09:40 AM 76.2°F24.6°C 61.8°F16.6°C 61% 5.8 mph NNW9.3 kmh NNW 9.2 mph14.8 kmh 29.97 in1014.9 mb - 0.00 in0.0 mm 0.00 in0.0 mm
09:50 AM 75.9°F24.4°C 62.4°F16.9°C 63% 8.1 mph NNW13.0 kmh NNW 9.2 mph14.8 kmh 29.97 in1014.9 mb - 0.00 in0.0 mm 0.00 in0.0 mm
10:00 AM 76.6°F24.8°C 62.6°F17.0°C 62% 4.6 mph NW7.4 kmh NW 6.9 mph11.1 kmh 29.97 in1014.9 mb - 0.00 in0.0 mm 0.00 in0.0 mm
10:10 AM 77.2°F25.1°C 61.8°F16.6°C 59% 1.2 mph N1.9 kmh N 5.8 mph9.3 kmh 29.97 in1014.9 mb - 0.00 in0.0 mm 0.00 in0.0 mm
10:20 AM 77.4°F25.2°C 61.9°F16.6°C 59% 4.6 mph N7.4 kmh N 5.8 mph9.3 kmh 29.97 in1014.9 mb - 0.00 in0.0 mm 0.00 in0.0 mm
10:30 AM 79.1°F26.2°C 63.1°F17.3°C 58% 5.8 mph NNW9.3 kmh NNW 9.2 mph14.8 kmh 29.97 in1014.9 mb - 0.00 in0.0 mm 0.00 in0.0 mm
10:40 AM 78.3°F25.7°C 61.8°F16.6°C 57% 4.6 mph W7.4 kmh W 5.8 mph9.3 kmh 29.97 in1014.9 mb - 0.00 in0.0 mm 0.00 in0.0 mm
10:50 AM 78.3°F25.7°C 61.8°F16.6°C 57% 5.8 mph N9.3 kmh N 5.8 mph9.3 kmh 29.97 in1014.9 mb - 0.00 in0.0 mm 0.00 in0.0 mm
11:00 AM 78.8°F26.0°C 61.8°F16.6°C 56% 5.8 mph NW9.3 kmh NW 5.8 mph9.3 kmh 29.97 in1014.9 mb - 0.00 in0.0 mm 0.00 in0.0 mm
11:10 AM 79.2°F26.2°C 60.6°F15.9°C 53% 4.6 mph NW7.4 kmh NW 8.1 mph13.0 kmh 29.97 in1014.9 mb - 0.00 in0.0 mm 0.00 in0.0 mm
11:20 AM 79.4°F26.3°C 60.8°F16.0°C 53% 4.6 mph NNW7.4 kmh NNW 9.2 mph14.8 kmh 29.97 in1014.9 mb - 0.00 in0.0 mm 0.00 in0.0 mm
11:30 AM 80.2°F26.8°C 59.9°F15.5°C 50% 4.6 mph N7.4 kmh N 8.1 mph13.0 kmh 29.97 in1014.9 mb - 0.00 in0.0 mm 0.00 in0.0 mm
11:40 AM 80.4°F26.9°C 61.2°F16.2°C 52% 5.8 mph NNW9.3 kmh NNW 10.4 mph16.7 kmh 29.97 in1014.9 mb - 0.00 in0.0 mm 0.00 in0.0 mm
11:50 AM 81.6°F27.6°C 61.2°F16.2°C 50% 4.6 mph N7.4 kmh N 9.2 mph14.8 kmh 29.97 in1014.9 mb - 0.00 in0.0 mm 0.00 in0.0 mm
12:00 PM 82.0°F27.8°C 61.0°F16.1°C 49% 5.8 mph NNW9.3 kmh NNW 10.4 mph16.7 kmh 29.97 in1014.9 mb - 0.00 in0.0 mm 0.00 in0.0 mm
12:10 PM 81.9°F27.7°C 60.9°F16.1°C 49% 4.6 mph W7.4 kmh W 8.1 mph13.0 kmh 29.97 in1014.9 mb - 0.00 in0.0 mm 0.00 in0.0 mm
12:20 PM 82.1°F27.8°C 60.5°F15.8°C 48% 4.6 mph NW7.4 kmh NW 5.8 mph9.3 kmh 29.97 in1014.9 mb - 0.00 in0.0 mm 0.00 in0.0 mm
12:30 PM 82.2°F27.9°C 60.6°F15.9°C 48% 5.8 mph W9.3 kmh W 8.1 mph13.0 kmh 29.97 in1014.9 mb - 0.00 in0.0 mm 0.00 in0.0 mm
12:40 PM 82.4°F28.0°C 60.1°F15.6°C 47% 3.5 mph WSW5.6 kmh WSW 5.8 mph9.3 kmh 29.97 in1014.9 mb - 0.00 in0.0 mm 0.00 in0.0 mm
12:50 PM 83.2°F28.4°C 60.3°F15.7°C 46% 5.8 mph NNW9.3 kmh NNW 10.4 mph16.7 kmh 29.97 in1014.9 mb - 0.00 in0.0 mm 0.00 in0.0 mm
01:10 PM 71.6°F22.0°C 57.5°F14.2°C 61% 4.6 mph SE7.4 kmh SE 12.7 mph20.4 kmh 30.00 in1015.9 mb - 0.00 in0.0 mm 0.00 in0.0 mm
01:20 PM 64.6°F18.1°C 56.5°F13.6°C 75% 8.1 mph E13.0 kmh E 8.1 mph13.0 kmh 30.00 in1015.9 mb - 0.52 in13.2 mm 0.52 in13.2 mm
01:30 PM 62.9°F17.2°C 59.0°F15.0°C 87% 3.5 mph NNW5.6 kmh NNW 4.6 mph7.4 kmh 30.03 in1016.9 mb - 0.71 in18.0 mm 0.71 in18.0 mm
01:40 PM 62.4°F16.9°C 60.4°F15.8°C 93% 3.5 mph SE5.6 kmh SE 3.5 mph5.6 kmh 30.03 in1016.9 mb - 0.76 in19.3 mm 0.76 in19.3 mm
01:50 PM 61.7°F16.5°C 60.2°F15.7°C 95% 1.2 mph SE1.9 kmh SE 5.8 mph9.3 kmh 30.00 in1015.9 mb - 0.76 in19.3 mm 0.76 in19.3 mm
02:00 PM 61.2°F16.2°C 60.3°F15.7°C 97% Calm Calm -- 30.03 in1016.9 mb - 0.76 in19.3 mm 0.76 in19.3 mm
02:10 PM 61.9°F16.6°C 61.3°F16.3°C 98% 1.2 mph WSW1.9 kmh WSW 2.3 mph3.7 kmh 30.03 in1016.9 mb - 0.76 in19.3 mm 0.76 in19.3 mm
02:20 PM 62.1°F16.7°C 61.5°F16.4°C 98% Calm Calm -- 30.03 in1016.9 mb - 0.28 in7.1 mm 0.76 in19.3 mm
02:30 PM 62.3°F16.8°C 61.7°F16.5°C 98% Calm Calm 2.3 mph3.7 kmh 30.03 in1016.9 mb - 0.09 in2.3 mm 0.76 in19.3 mm
02:40 PM 62.9°F17.2°C 62.3°F16.8°C 98% 3.5 mph SE5.6 kmh SE 3.5 mph5.6 kmh 30.03 in1016.9 mb - 0.00 in0.0 mm 0.76 in19.3 mm
02:50 PM 63.1°F17.3°C 62.5°F16.9°C 98% Calm Calm -- 30.03 in1016.9 mb - 0.00 in0.0 mm 0.76 in19.3 mm
03:00 PM 63.2°F17.3°C 62.7°F17.1°C 98% 3.5 mph SE5.6 kmh SE 3.5 mph5.6 kmh 30.03 in1016.9 mb - 0.00 in0.0 mm 0.76 in19.3 mm
03:10 PM 64.1°F17.8°C 63.5°F17.5°C 98% 1.2 mph E1.9 kmh E 3.5 mph5.6 kmh 30.03 in1016.9 mb - 0.14 in3.6 mm 0.90 in22.9 mm
03:20 PM 64.9°F18.3°C 64.3°F17.9°C 98% Calm Calm 2.3 mph3.7 kmh 30.00 in1015.9 mb - 0.14 in3.6 mm 0.90 in22.9 mm
03:30 PM 65.6°F18.7°C 65.0°F18.3°C 98% Calm Calm -- 30.00 in1015.9 mb - 0.14 in3.6 mm 0.90 in22.9 mm
03:40 PM 67.2°F19.6°C 66.6°F19.2°C 98% Calm Calm -- 30.00 in1015.9 mb - 0.14 in3.6 mm 0.90 in22.9 mm
03:50 PM 68.4°F20.2°C 67.5°F19.7°C 97% Calm Calm -- 30.00 in1015.9 mb - 0.14 in3.6 mm 0.90 in22.9 mm
04:00 PM 69.7°F20.9°C 67.2°F19.6°C 92% Calm Calm -- 30.00 in1015.9 mb - 0.14 in3.6 mm 0.90 in22.9 mm
04:10 PM 71.6°F22.0°C 67.5°F19.7°C 87% Calm Calm -- 30.00 in1015.9 mb - 0.00 in0.0 mm 0.90 in22.9 mm
04:20 PM 71.9°F22.2°C 65.4°F18.6°C 80% Calm Calm -- 30.00 in1015.9 mb - 0.00 in0.0 mm 0.90 in22.9 mm
04:30 PM 72.5°F22.5°C 65.2°F18.4°C 78% 2.3 mph SSE3.7 kmh SSE 4.6 mph7.4 kmh 30.00 in1015.9 mb - 0.00 in0.0 mm 0.90 in22.9 mm
04:40 PM 71.9°F22.2°C 63.9°F17.7°C 76% 1.2 mph S1.9 kmh S 5.8 mph9.3 kmh 30.00 in1015.9 mb - 0.00 in0.0 mm 0.90 in22.9 mm
04:50 PM 71.9°F22.2°C 63.9°F17.7°C 76% Calm Calm -- 30.00 in1015.9 mb - 0.00 in0.0 mm 0.90 in22.9 mm
05:00 PM 72.5°F22.5°C 65.2°F18.4°C 78% Calm Calm 2.3 mph3.7 kmh 30.00 in1015.9 mb - 0.00 in0.0 mm 0.90 in22.9 mm
05:10 PM 73.0°F22.8°C 64.9°F18.3°C 76% Calm Calm 3.5 mph5.6 kmh 30.00 in1015.9 mb - 0.00 in0.0 mm 0.90 in22.9 mm
05:20 PM 73.3°F22.9°C 64.1°F17.8°C 73% Calm Calm -- 30.00 in1015.9 mb - 0.00 in0.0 mm 0.90 in22.9 mm
05:30 PM 73.1°F22.8°C 63.9°F17.7°C 73% 2.3 mph NW3.7 kmh NW 3.5 mph5.6 kmh 30.00 in1015.9 mb - 0.00 in0.0 mm 0.90 in22.9 mm
05:40 PM 73.0°F22.8°C 65.0°F18.3°C 76% 3.5 mph SW5.6 kmh SW 3.5 mph5.6 kmh 30.00 in1015.9 mb - 0.00 in0.0 mm 0.90 in22.9 mm
05:50 PM 72.7°F22.6°C 64.7°F18.2°C 76% Calm Calm 3.5 mph5.6 kmh 30.00 in1015.9 mb - 0.00 in0.0 mm 0.90 in22.9 mm
06:00 PM 72.1°F22.3°C 64.1°F17.8°C 76% 2.3 mph NNW3.7 kmh NNW 2.3 mph3.7 kmh 30.00 in1015.9 mb - 0.00 in0.0 mm 0.90 in22.9 mm
06:10 PM 71.5°F21.9°C 63.5°F17.5°C 76% Calm Calm -- 30.00 in1015.9 mb - 0.00 in0.0 mm 0.90 in22.9 mm
06:20 PM 71.6°F22.0°C 64.0°F17.8°C 77% Calm Calm -- 30.00 in1015.9 mb - 0.00 in0.0 mm 0.90 in22.9 mm
06:30 PM 71.5°F21.9°C 64.7°F18.2°C 79% Calm Calm 2.3 mph3.7 kmh 30.00 in1015.9 mb - 0.00 in0.0 mm 0.90 in22.9 mm
06:40 PM 71.4°F21.9°C 64.6°F18.1°C 79% Calm Calm 3.5 mph5.6 kmh 30.00 in1015.9 mb - 0.00 in0.0 mm 0.90 in22.9 mm
06:50 PM 71.2°F21.8°C 64.8°F18.2°C 80% 2.3 mph WSW3.7 kmh WSW 3.5 mph5.6 kmh 30.00 in1015.9 mb - 0.00 in0.0 mm 0.90 in22.9 mm
07:00 PM 71.1°F21.7°C 65.3°F18.5°C 82% 2.3 mph WSW3.7 kmh WSW 3.5 mph5.6 kmh 30.00 in1015.9 mb - 0.00 in0.0 mm 0.90 in22.9 mm
07:10 PM 70.5°F21.4°C 65.8°F18.8°C 85% Calm Calm -- 30.00 in1015.9 mb - 0.00 in0.0 mm 0.90 in22.9 mm
07:20 PM 70.0°F21.1°C 65.9°F18.8°C 87% Calm Calm -- 30.00 in1015.9 mb - 0.00 in0.0 mm 0.90 in22.9 mm
07:30 PM 69.3°F20.7°C 65.2°F18.4°C 87% Calm Calm -- 30.03 in1016.9 mb - 0.00 in0.0 mm 0.90 in22.9 mm
07:40 PM 68.7°F20.4°C 64.7°F18.2°C 87% Calm Calm -- 30.03 in1016.9 mb - 0.00 in0.0 mm 0.90 in22.9 mm
07:50 PM 68.4°F20.2°C 64.7°F18.2°C 88% Calm Calm -- 30.03 in1016.9 mb - 0.00 in0.0 mm 0.90 in22.9 mm
08:00 PM 68.0°F20.0°C 64.6°F18.1°C 89% Calm Calm -- 30.00 in1015.9 mb - 0.00 in0.0 mm 0.90 in22.9 mm
08:10 PM 67.2°F19.6°C 63.8°F17.7°C 89% Calm Calm -- 30.00 in1015.9 mb - 0.00 in0.0 mm 0.90 in22.9 mm
08:20 PM 66.5°F19.2°C 62.8°F17.1°C 88% Calm Calm -- 30.03 in1016.9 mb - 0.00 in0.0 mm 0.90 in22.9 mm
08:30 PM 66.0°F18.9°C 62.4°F16.9°C 88% Calm Calm -- 30.03 in1016.9 mb - 0.00 in0.0 mm 0.90 in22.9 mm
08:40 PM 65.5°F18.6°C 62.1°F16.7°C 89% Calm Calm -- 30.03 in1016.9 mb - 0.00 in0.0 mm 0.90 in22.9 mm
08:50 PM 64.8°F18.2°C 61.4°F16.3°C 89% Calm Calm -- 30.03 in1016.9 mb - 0.00 in0.0 mm 0.90 in22.9 mm
09:00 PM 64.4°F18.0°C 61.4°F16.3°C 90% Calm Calm -- 30.03 in1016.9 mb - 0.00 in0.0 mm 0.90 in22.9 mm
09:10 PM 64.1°F17.8°C 61.4°F16.3°C 91% Calm Calm -- 30.03 in1016.9 mb - 0.00 in0.0 mm 0.90 in22.9 mm
09:20 PM 63.5°F17.5°C 61.1°F16.2°C 92% Calm Calm -- 30.03 in1016.9 mb - 0.00 in0.0 mm 0.90 in22.9 mm
09:30 PM 63.1°F17.3°C 60.8°F16.0°C 92% Calm Calm -- 30.03 in1016.9 mb - 0.00 in0.0 mm 0.90 in22.9 mm
09:40 PM 62.8°F17.1°C 60.7°F15.9°C 93% Calm Calm -- 30.03 in1016.9 mb - 0.00 in0.0 mm 0.90 in22.9 mm
09:50 PM 62.6°F17.0°C 60.5°F15.8°C 93% Calm Calm -- 30.03 in1016.9 mb - 0.00 in0.0 mm 0.90 in22.9 mm
10:00 PM 62.2°F16.8°C 60.5°F15.8°C 94% Calm Calm -- 30.03 in1016.9 mb - 0.00 in0.0 mm 0.90 in22.9 mm
10:10 PM 61.9°F16.6°C 60.1°F15.6°C 94% Calm Calm -- 30.03 in1016.9 mb - 0.00 in0.0 mm 0.90 in22.9 mm
10:20 PM 61.7°F16.5°C 60.3°F15.7°C 95% Calm Calm -- 30.03 in1016.9 mb - 0.00 in0.0 mm 0.90 in22.9 mm
10:30 PM 61.5°F16.4°C 60.1°F15.6°C 95% Calm Calm -- 30.03 in1016.9 mb - 0.00 in0.0 mm 0.90 in22.9 mm
10:40 PM 61.2°F16.2°C 59.8°F15.4°C 95% Calm Calm -- 30.03 in1016.9 mb - 0.00 in0.0 mm 0.90 in22.9 mm
10:50 PM 61.0°F16.1°C 59.8°F15.4°C 96% Calm Calm -- 30.03 in1016.9 mb - 0.00 in0.0 mm 0.90 in22.9 mm
11:00 PM 61.0°F16.1°C 59.9°F15.5°C 96% Calm Calm -- 30.03 in1016.9 mb - 0.00 in0.0 mm 5.48 in139.2 mm
11:10 PM 60.8°F16.0°C 59.9°F15.5°C 97% Calm Calm -- 30.03 in1016.9 mb - 0.00 in0.0 mm 5.48 in139.2 mm
11:20 PM 60.4°F15.8°C 59.6°F15.3°C 97% Calm Calm -- 30.03 in1016.9 mb - 0.00 in0.0 mm 5.48 in139.2 mm
11:30 PM 60.2°F15.7°C 59.6°F15.3°C 98% Calm Calm -- 30.03 in1016.9 mb - 0.00 in0.0 mm 5.48 in139.2 mm
11:40 PM 59.9°F15.5°C 59.3°F15.2°C 98% Calm Calm -- 30.03 in1016.9 mb - 0.00 in0.0 mm 5.48 in139.2 mm
11:50 PM 59.9°F15.5°C 59.3°F15.2°C 98% Calm Calm -- 30.06 in1017.9 mb - 0.00 in0.0 mm 5.48 in139.2 mm